Time;durP1;ratioP1;P1;durP2;ratioP2;P2;SDS_P1;SDS_P2;PMS_P1;PMS_P2;Temp;Humidity;BMP_temperature;BMP_pressure;BME280_temperature;BME280_humidity;BME280_pressure;Samples;Min_cycle;Max_cycle;Signal;HPM_P1;HPM_P2
2022/04/13 00:00:28;;;;;;;14.43;4.15;;;;;;;13.60;66.32;101072.16;4940317;28;20054;-64
2022/04/13 00:02:54;;;;;;;13.15;5.07;;;;;;;13.41;66.55;101078.00;4957910;28;20271;-63
2022/04/13 00:05:19;;;;;;;12.90;4.95;;;;;;;13.33;66.85;101075.84;4956798;28;20050;-63
2022/04/13 00:07:45;;;;;;;6.10;4.47;;;;;;;13.32;67.91;101081.34;4958292;28;20088;-64
2022/04/13 00:10:10;;;;;;;10.55;5.25;;;;;;;13.32;67.80;101079.50;4958530;28;20050;-63
2022/04/13 00:12:36;;;;;;;8.45;5.03;;;;;;;13.12;69.36;101074.69;4958181;28;20168;-63
2022/04/13 00:15:02;;;;;;;14.98;5.07;;;;;;;13.01;69.76;101077.25;4957815;28;20049;-63
2022/04/13 00:17:29;;;;;;;12.10;5.60;;;;;;;13.02;68.55;101073.59;4957841;28;20448;-64
2022/04/13 00:19:55;;;;;;;8.65;5.30;;;;;;;13.00;69.89;101081.72;4956259;28;20041;-64
2022/04/13 00:22:20;;;;;;;12.27;5.40;;;;;;;12.75;70.50;101079.91;5027105;28;20048;-63
2022/04/13 00:24:46;;;;;;;8.98;4.80;;;;;;;12.65;71.28;101087.72;5039261;28;20453;-63
2022/04/13 00:27:11;;;;;;;9.30;5.40;;;;;;;12.67;71.36;101090.28;5039055;28;20056;-64
2022/04/13 00:29:37;;;;;;;9.20;5.53;;;;;;;12.65;70.85;101087.72;5039554;28;20044;-64
2022/04/13 00:32:03;;;;;;;11.93;5.22;;;;;;;12.60;70.38;101091.63;5039346;28;20051;-63
2022/04/13 00:34:29;;;;;;;10.23;5.72;;;;;;;12.51;70.27;101093.13;5038912;28;20064;-64
2022/04/13 00:36:57;;;;;;;15.52;5.85;;;;;;;12.49;70.41;101089.69;5036669;28;20492;-64
2022/04/13 00:39:26;;;;;;;13.65;6.13;;;;;;;12.57;70.40;101090.03;4986389;28;20388;-64
2022/04/13 00:41:59;;;;;;;14.45;6.10;;;;;;;12.49;70.10;101089.69;4957752;28;20038;-64
2022/04/13 00:44:27;;;;;;;10.00;5.25;;;;;;;12.53;69.93;101093.03;4957298;28;20051;-63
2022/04/13 00:46:53;;;;;;;16.50;5.57;;;;;;;12.53;69.93;101087.69;4957400;28;20067;-64
2022/04/13 00:49:18;;;;;;;19.45;6.03;;;;;;;12.50;69.90;101094.09;4957055;28;20514;-63
2022/04/13 00:51:44;;;;;;;13.75;5.90;;;;;;;12.51;70.27;101089.59;4957979;28;20051;-64
2022/04/13 00:54:12;;;;;;;13.82;5.90;;;;;;;12.49;70.74;101097.72;4957251;28;20046;-63
2022/04/13 00:56:40;;;;;;;17.75;5.03;;;;;;;12.39;70.75;101088.59;4955617;28;20045;-63
2022/04/13 00:59:09;;;;;;;14.05;5.05;;;;;;;12.40;70.15;101098.34;4955140;28;20042;-64
2022/04/13 01:01:37;;;;;;;8.25;5.40;;;;;;;12.40;71.16;101095.69;4956373;28;20038;-64
2022/04/13 01:04:05;;;;;;;7.93;5.18;;;;;;;12.30;71.67;101090.09;4954446;28;20054;-63
2022/04/13 01:06:32;;;;;;;11.05;5.18;;;;;;;12.08;72.44;101087.09;4956259;28;20125;-63
2022/04/13 01:08:58;;;;;;;9.98;4.60;;;;;;;12.13;71.87;101096.53;4954384;28;20569;-64
2022/04/13 01:11:26;;;;;;;12.07;5.72;;;;;;;12.27;70.01;101095.63;4956248;28;20488;-63
2022/04/13 01:13:54;;;;;;;11.80;5.20;;;;;;;12.29;70.42;101098.19;4956227;28;21251;-64
2022/04/13 01:16:21;;;;;;;13.48;5.15;;;;;;;12.36;70.16;101104.88;4956655;28;20043;-64
2022/04/13 01:18:47;;;;;;;13.45;5.95;;;;;;;12.36;70.21;101111.06;4956925;28;20482;-64
2022/04/13 01:21:13;;;;;;;10.70;5.18;;;;;;;12.23;70.96;101109.31;4970035;28;20040;-64
2022/04/13 01:23:39;;;;;;;8.73;5.32;;;;;;;12.10;71.19;101111.94;5038660;28;20099;-64
2022/04/13 01:26:10;;;;;;;10.65;6.15;;;;;;;12.02;71.39;101117.78;5038687;28;20472;-64
2022/04/13 01:28:35;;;;;;;15.27;6.15;;;;;;;11.96;71.45;101123.53;5038584;28;20580;-64
2022/04/13 01:31:01;;;;;;;12.73;6.15;;;;;;;11.92;71.48;101130.00;5037332;28;20047;-64
2022/04/13 01:33:29;;;;;;;12.73;5.57;;;;;;;12.01;71.30;101129.44;5038212;28;20062;-64
2022/04/13 01:36:00;;;;;;;13.93;5.65;;;;;;;11.90;71.49;101138.13;5037618;28;20737;-64
2022/04/13 01:38:26;;;;;;;16.77;5.32;;;;;;;11.98;71.50;101137.63;5016382;28;20048;-64
2022/04/13 01:40:52;;;;;;;9.85;5.25;;;;;;;11.98;71.68;101142.13;4954783;28;20046;-63
2022/04/13 01:43:17;;;;;;;16.38;6.03;;;;;;;11.92;72.46;101133.53;4954679;28;20065;-64
2022/04/13 01:45:43;;;;;;;9.85;4.80;;;;;;;11.81;71.97;101136.00;4955861;28;20138;-64
2022/04/13 01:48:09;;;;;;;12.68;5.45;;;;;;;11.79;72.11;101147.75;4956405;28;20042;-63
2022/04/13 01:50:35;;;;;;;14.88;5.43;;;;;;;11.62;72.89;101151.50;4957199;28;20046;-64
2022/04/13 01:53:00;;;;;;;12.65;5.00;;;;;;;11.59;73.29;101162.34;4957369;28;20051;-64
2022/04/13 01:55:26;;;;;;;9.23;5.32;;;;;;;11.66;72.54;101161.88;4957010;28;20047;-64
2022/04/13 01:57:51;;;;;;;11.18;5.70;;;;;;;11.64;72.07;101165.59;4951246;28;20051;-63
2022/04/13 02:00:17;;;;;;;16.45;5.63;;;;;;;11.67;72.15;101160.06;4938505;28;20050;-64
2022/04/13 02:02:42;;;;;;;13.55;5.93;;;;;;;11.68;72.04;101157.28;4952661;28;20579;-63
2022/04/13 02:05:09;;;;;;;15.77;5.53;;;;;;;11.74;71.23;101158.72;4937441;28;20048;-64
2022/04/13 02:07:35;;;;;;;9.50;5.25;;;;;;;11.76;71.40;101162.16;4937391;28;20070;-63
2022/04/13 02:10:01;;;;;;;12.82;6.18;;;;;;;11.71;71.35;101161.59;4951477;28;20560;-64
2022/04/13 02:12:26;;;;;;;12.32;5.60;;;;;;;11.77;71.07;101165.69;4936359;28;20402;-63
2022/04/13 02:14:52;;;;;;;14.80;5.60;;;;;;;11.70;71.33;101170.56;5039901;23;20102;-64
2022/04/13 02:17:19;;;;;;;10.98;4.97;;;;;;;11.62;71.53;101173.72;5097648;28;20119;-61
2022/04/13 02:19:45;;;;;;;9.82;5.82;;;;;;;11.63;71.46;101175.44;5079679;28;20036;-61
2022/04/13 02:22:11;;;;;;;18.40;6.40;;;;;;;11.63;71.73;101171.91;5082387;28;20047;-63
2022/04/13 02:24:38;;;;;;;14.35;5.60;;;;;;;11.58;72.12;101177.53;5076978;28;20036;-61
2022/04/13 02:27:03;;;;;;;17.33;6.35;;;;;;;11.58;71.74;101174.84;5079269;28;20044;-64
2022/04/13 02:29:29;;;;;;;13.52;5.65;;;;;;;11.54;71.71;101178.66;5078771;28;20044;-61
2022/04/13 02:31:54;;;;;;;19.02;6.10;;;;;;;11.53;71.84;101181.44;5076596;28;20040;-64
2022/04/13 02:34:20;;;;;;;17.50;6.03;;;;;;;11.48;71.62;101176.38;5078152;28;20048;-63
2022/04/13 02:36:45;;;;;;;13.10;5.72;;;;;;;11.53;71.84;101184.09;5075757;28;20195;-63
2022/04/13 02:39:11;;;;;;;10.95;5.95;;;;;;;11.51;72.11;101191.38;5088519;28;20039;-63
2022/04/13 02:41:36;;;;;;;12.77;5.95;;;;;;;11.48;71.70;101195.06;5097230;28;20277;-61
2022/04/13 02:44:02;;;;;;;13.25;6.45;;;;;;;11.44;71.84;101196.22;5097568;28;20060;-63
2022/04/13 02:46:27;;;;;;;13.75;6.10;;;;;;;11.51;72.38;101199.38;5097381;28;20053;-61
2022/04/13 02:48:53;;;;;;;12.90;6.65;;;;;;;11.45;72.17;101194.44;5098729;28;20065;-64
2022/04/13 02:51:18;;;;;;;12.43;5.88;;;;;;;11.47;71.64;101195.19;5101256;28;20097;-61
2022/04/13 02:53:44;;;;;;;12.10;5.93;;;;;;;11.55;71.87;101199.09;5101134;28;20053;-61
2022/04/13 02:56:09;;;;;;;12.60;5.93;;;;;;;11.58;72.10;101198.03;5100702;28;20382;-61
2022/04/13 02:58:34;;;;;;;11.93;5.70;;;;;;;11.73;70.97;101207.78;5099823;28;20043;-63
2022/04/13 03:01:03;;;;;;;15.48;6.35;;;;;;;11.81;70.46;101204.63;5081058;28;20043;-63
2022/04/13 03:03:28;;;;;;;18.42;5.93;;;;;;;11.83;70.64;101208.94;5098785;28;20031;-63
2022/04/13 03:05:54;;;;;;;17.88;6.35;;;;;;;11.93;70.12;101219.91;5099056;28;20031;-63
2022/04/13 03:08:19;;;;;;;12.32;6.22;;;;;;;11.97;70.62;101217.91;5099271;28;20423;-63
2022/04/13 03:10:45;;;;;;;14.45;6.70;;;;;;;11.88;71.01;101224.69;5099765;28;20055;-63
2022/04/13 03:13:11;;;;;;;15.55;7.10;;;;;;;12.08;70.08;101224.28;5100598;28;20734;-63
2022/04/13 03:15:36;;;;;;;20.13;6.28;;;;;;;12.13;70.19;101224.00;5099695;28;20056;-63
2022/04/13 03:18:02;;;;;;;17.25;8.05;;;;;;;12.22;69.99;101226.09;5096454;28;20447;-63
2022/04/13 03:20:27;;;;;;;11.90;6.32;;;;;;;12.29;69.75;101231.91;5081084;28;20040;-63
2022/04/13 03:22:53;;;;;;;12.88;7.32;;;;;;;12.37;69.55;101230.44;5099918;28;20042;-60
2022/04/13 03:25:18;;;;;;;15.07;8.38;;;;;;;12.29;69.81;101223.88;5099618;28;20055;-63
2022/04/13 03:27:44;;;;;;;18.40;7.55;;;;;;;12.34;69.67;101224.44;5099859;28;20058;-61
2022/04/13 03:30:13;;;;;;;14.15;7.30;;;;;;;12.35;70.13;101228.81;5099413;28;20040;-63
2022/04/13 03:32:39;;;;;;;16.65;6.65;;;;;;;12.27;69.90;101229.31;5099766;28;20500;-61
2022/04/13 03:35:10;;;;;;;19.75;7.10;;;;;;;12.28;69.86;101231.03;5098863;28;20142;-61
2022/04/13 03:37:36;;;;;;;35.25;9.48;;;;;;;12.23;70.40;101240.31;5041284;28;20079;-61
2022/04/13 03:40:01;;;;;;;17.33;8.10;;;;;;;12.22;70.53;101239.47;5095312;28;20175;-63
2022/04/13 03:42:27;;;;;;;21.85;9.20;;;;;;;12.15;70.96;101246.16;5058471;28;20036;-60
2022/04/13 03:44:52;;;;;;;14.07;7.68;;;;;;;12.15;70.99;101243.50;5060114;28;20775;-62
2022/04/13 03:47:18;;;;;;;15.60;7.60;;;;;;;12.12;71.06;101249.03;5058771;28;20140;-61
2022/04/13 03:49:44;;;;;;;20.52;8.43;;;;;;;12.02;71.65;101250.56;5059013;28;20056;-61
2022/04/13 03:52:10;;;;;;;17.95;7.85;;;;;;;11.99;71.68;101250.75;5058830;28;20036;-61
2022/04/13 03:54:35;;;;;;;15.10;7.28;;;;;;;11.86;71.93;101251.53;5059357;28;20033;-61
2022/04/13 03:57:00;;;;;;;15.50;6.72;;;;;;;11.89;72.11;101245.09;5051085;28;20055;-61
2022/04/13 03:59:26;;;;;;;16.38;8.15;;;;;;;11.98;71.94;101243.69;5039677;28;20055;-62
2022/04/13 04:01:52;;;;;;;15.30;6.30;;;;;;;11.81;72.70;101247.38;5058082;28;20296;-61
2022/04/13 04:04:17;;;;;;;18.20;7.90;;;;;;;11.76;73.00;101244.13;5058612;28;20119;-61
2022/04/13 04:06:43;;;;;;;18.65;7.28;;;;;;;11.63;72.95;101244.03;5057799;28;20681;-62
2022/04/13 04:09:08;;;;;;;10.50;6.03;;;;;;;11.54;73.54;101257.94;5057492;28;20126;-61
2022/04/13 04:11:34;;;;;;;14.13;6.35;;;;;;;11.36;74.46;101267.94;5057963;28;20033;-62
2022/04/13 04:14:00;;;;;;;7.38;5.43;;;;;;;11.33;74.54;101268.97;5058174;28;20064;-63
2022/04/13 04:16:25;;;;;;;10.82;6.30;;;;;;;11.25;74.56;101271.25;5058716;28;20106;-61
2022/04/13 04:18:50;;;;;;;10.15;6.38;;;;;;;11.27;74.52;101271.13;5069194;28;20064;-62
2022/04/13 04:21:16;;;;;;;14.57;7.18;;;;;;;11.18;74.73;101259.19;5078371;28;20036;-61
2022/04/13 04:23:42;;;;;;;12.25;6.10;;;;;;;11.02;75.23;101263.72;5060005;28;20039;-61
2022/04/13 04:26:09;;;;;;;8.02;4.53;;;;;;;10.84;75.71;101263.84;5079018;28;20040;-61
2022/04/13 04:28:34;;;;;;;11.07;6.30;;;;;;;10.80;75.51;101269.44;5078863;28;20604;-62
2022/04/13 04:31:00;;;;;;;9.65;6.43;;;;;;;10.79;75.86;101273.94;5060213;28;20048;-61
2022/04/13 04:33:26;;;;;;;17.10;6.63;;;;;;;10.55;76.23;101276.19;5078957;28;20093;-61
2022/04/13 04:35:51;;;;;;;11.57;6.45;;;;;;;10.48;77.23;101277.44;5053592;28;20048;-61
2022/04/13 04:38:18;;;;;;;10.63;6.35;;;;;;;10.44;76.70;101286.59;5051126;28;20027;-61
2022/04/13 04:40:43;;;;;;;9.55;6.00;;;;;;;10.54;76.81;101294.91;5058984;28;20119;-61
2022/04/13 04:43:09;;;;;;;10.85;6.57;;;;;;;10.47;76.93;101285.53;5058965;28;20044;-61
2022/04/13 04:45:35;;;;;;;11.80;6.50;;;;;;;10.57;77.00;101284.94;5059267;28;20084;-61
2022/04/13 04:48:07;;;;;;;13.35;6.53;;;;;;;10.45;77.48;101288.31;5058325;28;20600;-60
2022/04/13 04:50:33;;;;;;;10.00;6.82;;;;;;;10.47;76.90;101289.06;5059283;28;20055;-61
2022/04/13 04:52:59;;;;;;;9.10;5.60;;;;;;;10.47;76.79;101288.22;5058093;28;20465;-61
2022/04/13 04:55:24;;;;;;;10.77;5.55;;;;;;;10.33;76.54;101283.63;5057882;28;20051;-61
2022/04/13 04:57:51;;;;;;;15.35;6.10;;;;;;;10.34;76.94;101286.25;5055020;28;20052;-61
2022/04/13 05:00:19;;;;;;;16.70;7.43;;;;;;;10.36;77.54;101288.81;5051796;28;20037;-61
2022/04/13 05:02:48;;;;;;;11.18;6.72;;;;;;;10.39;77.73;101293.94;5052025;28;20426;-61
2022/04/13 05:05:14;;;;;;;12.75;6.72;;;;;;;10.46;77.65;101308.69;5052608;28;20036;-61
2022/04/13 05:07:40;;;;;;;14.13;6.93;;;;;;;10.39;77.71;101307.28;5051369;28;20048;-61
2022/04/13 05:10:07;;;;;;;12.32;7.07;;;;;;;10.45;77.29;101314.09;5053509;28;20036;-61
2022/04/13 05:12:53;;;;;;;11.82;6.97;;;;;;;10.52;77.18;101316.34;5055274;28;20061;-61
2022/04/13 05:15:19;;;;;;;15.65;6.68;;;;;;;10.61;76.81;101329.16;5053783;28;20483;-62
2022/04/13 05:17:44;;;;;;;11.25;6.80;;;;;;;10.68;76.99;101326.16;5056059;28;20033;-61
2022/04/13 05:20:10;;;;;;;14.60;7.45;;;;;;;10.63;76.81;101337.91;5056502;28;20062;-61
2022/04/13 05:22:36;;;;;;;17.55;7.00;;;;;;;10.62;77.27;101338.03;5086388;28;20040;-61
2022/04/13 05:25:11;;;;;;;22.13;7.90;;;;;;;10.62;77.21;101343.34;5051918;28;20051;-61
2022/04/13 05:27:37;;;;;;;10.23;7.30;;;;;;;10.79;76.66;101343.28;5077624;28;20036;-61
2022/04/13 05:30:05;;;;;;;12.38;6.78;;;;;;;10.84;76.61;101338.56;5065740;28;20036;-61
2022/04/13 05:32:31;;;;;;;15.25;8.18;;;;;;;10.93;76.09;101353.16;5066993;28;20048;-61
2022/04/13 05:35:00;;;;;;;15.13;7.85;;;;;;;11.06;75.83;101359.53;5058299;28;20063;-61
2022/04/13 05:37:27;;;;;;;13.88;8.20;;;;;;;11.14;75.38;101367.09;5058117;28;20094;-61
2022/04/13 05:39:52;;;;;;;14.20;8.00;;;;;;;11.23;75.30;101363.88;5061145;28;20377;-61
2022/04/13 05:42:22;;;;;;;16.83;8.20;;;;;;;11.34;75.07;101360.59;5058590;28;20047;-61
2022/04/13 05:44:48;;;;;;;28.60;10.23;;;;;;;11.41;74.78;101361.97;5056741;28;20125;-61
2022/04/13 05:47:13;;;;;;;21.35;9.38;;;;;;;11.53;74.43;101374.59;5056997;28;20487;-61
2022/04/13 05:49:39;;;;;;;15.73;10.30;;;;;;;11.64;74.26;101374.81;5038642;28;20045;-61
2022/04/13 05:52:04;;;;;;;19.10;10.55;;;;;;;11.82;73.76;101377.38;5038256;28;20052;-62
2022/04/13 05:54:29;;;;;;;20.83;9.18;;;;;;;11.91;73.32;101379.50;5055902;28;20125;-61
2022/04/13 05:56:55;;;;;;;16.17;9.38;;;;;;;11.90;73.43;101378.66;5039251;28;20045;-61
2022/04/13 05:59:20;;;;;;;21.58;9.27;;;;;;;12.15;72.44;101370.00;5038883;28;20045;-61
2022/04/13 06:01:46;;;;;;;20.02;9.27;;;;;;;12.31;72.12;101369.91;5056920;28;20043;-61
2022/04/13 06:04:11;;;;;;;19.00;10.15;;;;;;;12.85;71.00;101374.53;5057551;28;20896;-61
2022/04/13 06:06:36;;;;;;;18.52;10.25;;;;;;;13.34;69.69;101379.38;5057122;28;20220;-62
2022/04/13 06:09:02;;;;;;;22.98;9.40;;;;;;;13.55;68.87;101371.72;5057566;28;20529;-61
2022/04/13 06:11:27;;;;;;;12.98;8.30;;;;;;;13.88;68.65;101382.00;5039412;28;20074;-62
2022/04/13 06:13:53;;;;;;;14.02;8.45;;;;;;;14.37;66.87;101366.03;5038579;28;20129;-61
2022/04/13 06:16:18;;;;;;;13.38;9.27;;;;;;;14.83;65.74;101370.81;5039145;28;20041;-61
2022/04/13 06:18:43;;;;;;;16.55;8.15;;;;;;;14.96;65.97;101378.81;5057699;28;20086;-62
2022/04/13 06:21:09;;;;;;;20.00;8.82;;;;;;;14.86;66.37;101383.13;5078926;28;20100;-61
2022/04/13 06:23:35;;;;;;;14.40;9.65;;;;;;;15.01;66.29;101392.78;5100267;28;20540;-62
2022/04/13 06:26:00;;;;;;;16.92;9.02;;;;;;;15.06;65.25;101401.38;5071046;28;20122;-65
2022/04/13 06:28:26;;;;;;;26.08;11.18;;;;;;;14.70;66.03;101403.03;5063412;28;20036;-62
2022/04/13 06:30:51;;;;;;;17.92;10.82;;;;;;;14.86;65.39;101402.81;5062837;28;20044;-61
2022/04/13 06:33:16;;;;;;;15.35;10.05;;;;;;;15.08;65.68;101410.16;5062470;28;20059;-62
2022/04/13 06:35:42;;;;;;;16.13;9.55;;;;;;;15.48;63.82;101416.13;5061664;28;20043;-61
2022/04/13 06:38:07;;;;;;;16.48;9.90;;;;;;;15.55;64.55;101409.31;5067324;28;20116;-61
2022/04/13 06:40:33;;;;;;;19.85;10.02;;;;;;;15.57;64.33;101414.59;5101849;28;20043;-62
2022/04/13 06:42:59;;;;;;;16.23;9.68;;;;;;;15.61;64.85;101420.56;5101217;28;20036;-62
2022/04/13 06:45:24;;;;;;;17.13;9.80;;;;;;;15.32;65.22;101414.69;5101823;28;20505;-61
2022/04/13 06:47:50;;;;;;;17.73;9.93;;;;;;;15.42;65.84;101416.59;5101729;28;20544;-61
2022/04/13 06:50:15;;;;;;;20.65;10.55;;;;;;;15.84;64.26;101422.41;5101314;28;20058;-62
2022/04/13 06:52:42;;;;;;;18.40;9.48;;;;;;;16.06;63.55;101424.31;5056325;28;20040;-62
2022/04/13 06:55:09;;;;;;;18.23;9.77;;;;;;;15.71;65.27;101433.25;5061232;28;20037;-61
2022/04/13 06:57:37;;;;;;;14.90;9.07;;;;;;;15.79;65.19;101428.13;5064301;28;20105;-60
2022/04/13 07:00:12;;;;;;;19.70;10.82;;;;;;;16.08;64.38;101425.06;5060419;28;20054;-62
2022/04/13 07:02:39;;;;;;;23.20;11.68;;;;;;;16.12;64.55;101429.25;5060236;28;20143;-63
2022/04/13 07:05:05;;;;;;;14.65;8.63;;;;;;;16.25;64.77;101426.44;5046962;28;20499;-63
2022/04/13 07:07:31;;;;;;;16.75;8.80;;;;;;;16.61;63.18;101432.59;5062188;28;20075;-61
2022/04/13 07:09:57;;;;;;;17.70;9.07;;;;;;;15.80;65.55;101439.75;5059015;28;20268;-62
2022/04/13 07:12:22;;;;;;;14.93;9.55;;;;;;;16.37;63.98;101446.16;5043363;28;20033;-62
2022/04/13 07:14:47;;;;;;;14.82;8.95;;;;;;;16.72;62.94;101441.59;5060495;28;20048;-62
2022/04/13 07:17:13;;;;;;;18.17;9.23;;;;;;;16.86;62.88;101439.59;5066782;28;20646;-62
2022/04/13 07:19:38;;;;;;;14.93;9.95;;;;;;;16.55;63.08;101445.56;5060156;28;20584;-62
2022/04/13 07:22:05;;;;;;;16.00;9.43;;;;;;;16.71;63.09;101445.22;5064153;28;20040;-62
2022/04/13 07:24:30;;;;;;;19.33;9.80;;;;;;;16.73;63.05;101443.28;5071293;28;20044;-62
2022/04/13 07:26:56;;;;;;;18.85;9.43;;;;;;;17.24;61.87;101449.97;5059748;28;20397;-62
2022/04/13 07:29:21;;;;;;;22.45;11.13;;;;;;;16.46;63.60;101464.28;5062534;28;20119;-62
2022/04/13 07:31:47;;;;;;;16.48;9.57;;;;;;;16.74;62.87;101465.69;5041402;28;20488;-61
2022/04/13 07:34:13;;;;;;;21.48;10.65;;;;;;;16.96;62.21;101464.81;5059683;28;20320;-62
2022/04/13 07:36:38;;;;;;;22.65;11.30;;;;;;;17.11;62.42;101465.44;5065858;28;20139;-62
2022/04/13 07:39:04;;;;;;;18.77;11.05;;;;;;;16.92;63.39;101469.63;5049762;28;20119;-61
2022/04/13 07:41:29;;;;;;;19.40;10.40;;;;;;;16.69;63.28;101481.31;5068929;28;20119;-62
2022/04/13 07:43:57;;;;;;;19.02;11.35;;;;;;;16.88;63.39;101475.38;5066729;28;20041;-62
2022/04/13 07:46:22;;;;;;;21.55;10.55;;;;;;;16.72;64.06;101479.28;5068910;28;20056;-62
2022/04/13 07:48:48;;;;;;;20.33;10.60;;;;;;;17.26;62.41;101477.66;5043892;28;20032;-62
2022/04/13 07:51:13;;;;;;;21.67;10.45;;;;;;;18.02;60.55;101474.03;5059939;28;20117;-62
2022/04/13 07:53:39;;;;;;;18.67;10.82;;;;;;;17.28;62.06;101475.72;5060610;28;20048;-62
2022/04/13 07:56:04;;;;;;;20.23;10.40;;;;;;;17.28;61.17;101475.72;5041069;28;20052;-61
2022/04/13 07:58:30;;;;;;;16.95;9.77;;;;;;;17.17;62.52;101499.97;5053069;28;20043;-62
2022/04/13 08:00:55;;;;;;;20.25;10.85;;;;;;;16.93;63.03;101502.81;5060665;28;20036;-62
2022/04/13 08:03:20;;;;;;;20.00;10.90;;;;;;;16.57;63.81;101502.00;5079031;28;20051;-62
2022/04/13 08:05:46;;;;;;;16.60;9.93;;;;;;;17.14;62.76;101495.69;5078603;28;20035;-62
2022/04/13 08:08:11;;;;;;;19.63;9.38;;;;;;;17.50;62.20;101496.38;5059542;28;20318;-61
2022/04/13 08:10:37;;;;;;;19.45;10.68;;;;;;;17.28;62.25;101514.31;5077827;28;20137;-61
2022/04/13 08:13:02;;;;;;;18.67;9.43;;;;;;;17.09;63.58;101512.22;5044445;28;20119;-61
2022/04/13 08:15:28;;;;;;;19.23;11.38;;;;;;;16.97;63.32;101520.44;5079378;28;20059;-62
2022/04/13 08:17:53;;;;;;;18.23;10.07;;;;;;;16.70;63.28;101516.22;5079242;28;20059;-62
2022/04/13 08:20:18;;;;;;;16.65;10.25;;;;;;;16.83;63.99;101525.09;5060917;28;20040;-62
2022/04/13 08:22:46;;;;;;;18.35;11.05;;;;;;;16.54;63.95;101532.72;5082660;28;20039;-61
2022/04/13 08:25:13;;;;;;;17.90;10.40;;;;;;;16.55;64.14;101533.56;5058880;28;20067;-62
2022/04/13 08:27:38;;;;;;;19.80;11.40;;;;;;;16.63;63.93;101533.84;5058501;28;20425;-62
2022/04/13 08:30:04;;;;;;;19.55;11.05;;;;;;;16.78;63.83;101529.97;5058282;28;20051;-61
2022/04/13 08:32:30;;;;;;;19.55;11.35;;;;;;;17.12;62.85;101537.22;5058099;28;20052;-61
2022/04/13 08:34:55;;;;;;;22.10;11.20;;;;;;;17.02;62.83;101531.72;5040815;28;20063;-61
2022/04/13 08:37:22;;;;;;;28.98;12.85;;;;;;;17.30;62.98;101536.59;5078127;28;20032;-61
2022/04/13 08:39:48;;;;;;;21.92;11.95;;;;;;;16.96;63.37;101541.13;5094286;28;20035;-62
2022/04/13 08:42:23;;;;;;;24.83;12.15;;;;;;;17.49;62.00;101535.97;5066770;28;20093;-62
2022/04/13 08:44:50;;;;;;;21.90;12.48;;;;;;;17.24;62.60;101530.84;5075519;28;20042;-61
2022/04/13 08:47:22;;;;;;;18.52;10.50;;;;;;;17.05;63.34;101544.94;5076614;28;20785;-61
2022/04/13 08:49:49;;;;;;;18.40;10.70;;;;;;;16.70;63.39;101545.84;5078139;28;20086;-62
2022/04/13 08:52:23;;;;;;;23.05;11.00;;;;;;;16.98;62.99;101549.97;5079159;28;20381;-62
2022/04/13 08:55:07;;;;;;;22.48;10.63;;;;;;;17.78;61.17;101546.25;5042453;28;20166;-62
2022/04/13 08:57:38;;;;;;;22.25;10.40;;;;;;;18.23;60.14;101544.25;5062973;28;20042;-62
2022/04/13 09:00:06;;;;;;;21.55;11.10;;;;;;;18.01;59.96;101547.88;5077975;28;20128;-61
2022/04/13 09:02:47;;;;;;;18.77;10.57;;;;;;;18.82;59.05;101546.38;5078332;28;20047;-62
2022/04/13 09:05:19;;;;;;;13.10;8.45;;;;;;;18.36;57.30;101542.19;5078662;28;20392;-62
2022/04/13 09:07:53;;;;;;;14.93;9.00;;;;;;;18.74;57.28;101550.75;5078096;28;20491;-62
2022/04/13 09:10:23;;;;;;;17.98;9.85;;;;;;;19.25;55.79;101548.03;5059740;28;20040;-62
2022/04/13 09:12:50;;;;;;;14.30;9.15;;;;;;;19.48;53.67;101547.81;5078065;28;20058;-62
2022/04/13 09:15:16;;;;;;;13.07;7.88;;;;;;;19.80;52.75;101548.50;5059151;28;20503;-62
2022/04/13 09:17:42;;;;;;;11.80;7.55;;;;;;;19.97;54.98;101549.66;5078259;28;20043;-61
2022/04/13 09:20:09;;;;;;;7.28;4.25;;;;;;;19.90;50.61;101548.53;5078050;28;20048;-61
2022/04/13 09:22:36;;;;;;;10.20;5.25;;;;;;;19.85;52.27;101550.78;5097240;28;20403;-61
2022/04/13 09:25:04;;;;;;;6.45;4.60;;;;;;;18.90;52.81;101553.84;5098415;28;20051;-61
2022/04/13 09:27:30;;;;;;;6.00;3.97;;;;;;;19.24;53.24;101548.16;5098140;28;20794;-61
2022/04/13 09:29:56;;;;;;;11.95;7.05;;;;;;;19.22;53.99;101553.69;5098529;28;20088;-61
2022/04/13 09:32:21;;;;;;;13.90;7.43;;;;;;;19.73;54.21;101551.88;5098760;28;20416;-62
2022/04/13 09:34:47;;;;;;;9.98;7.22;;;;;;;19.37;56.15;101551.47;5099400;28;20039;-62
2022/04/13 09:37:13;;;;;;;8.35;5.70;;;;;;;18.74;55.88;101559.72;5098900;28;20035;-62
2022/04/13 09:39:39;;;;;;;12.10;6.13;;;;;;;19.24;55.06;101562.53;5097865;28;20404;-62
2022/04/13 09:42:04;;;;;;;13.55;6.85;;;;;;;19.42;54.85;101558.19;5080144;28;20148;-62
2022/04/13 09:44:32;;;;;;;12.80;6.88;;;;;;;19.73;53.52;101550.06;5098226;28;20048;-62
2022/04/13 09:47:12;;;;;;;12.93;6.53;;;;;;;19.13;55.01;101552.69;5097606;28;20134;-61
2022/04/13 09:49:46;;;;;;;9.52;5.25;;;;;;;19.24;54.81;101559.84;5097995;28;20077;-62
2022/04/13 09:52:12;;;;;;;7.22;5.30;;;;;;;18.88;54.74;101559.38;5079013;28;20046;-62
2022/04/13 09:54:47;;;;;;;8.35;5.22;;;;;;;19.15;55.35;101569.63;5079470;28;20135;-62
2022/04/13 09:57:22;;;;;;;12.63;7.15;;;;;;;19.63;56.34;101563.56;5097166;28;20035;-62
2022/04/13 09:59:59;;;;;;;11.20;6.80;;;;;;;19.84;54.48;101568.03;5082487;28;20119;-61
2022/04/13 10:02:35;;;;;;;9.82;5.72;;;;;;;19.94;52.68;101574.31;5063258;28;20150;-61
2022/04/13 10:05:03;;;;;;;9.70;6.25;;;;;;;19.26;54.19;101582.19;5063236;28;20060;-62
2022/04/13 10:07:29;;;;;;;13.77;6.13;;;;;;;19.85;54.18;101578.72;5062365;28;20848;-62
2022/04/13 10:09:54;;;;;;;15.30;7.53;;;;;;;19.07;55.07;101576.69;5080935;28;20055;-62
2022/04/13 10:12:19;;;;;;;11.77;6.75;;;;;;;19.81;55.38;101571.84;5062530;28;20062;-62
2022/04/13 10:14:46;;;;;;;18.83;7.60;;;;;;;19.86;54.00;101572.31;5062404;28;20520;-62
2022/04/13 10:17:13;;;;;;;14.68;8.18;;;;;;;20.29;52.47;101576.50;5075577;28;20033;-64
2022/04/13 10:19:39;;;;;;;16.38;8.48;;;;;;;20.33;52.14;101575.22;5051791;28;20105;-62
2022/04/13 10:22:05;;;;;;;16.08;8.63;;;;;;;19.25;54.52;101583.19;5072989;28;20033;-63
2022/04/13 10:24:33;;;;;;;14.65;7.97;;;;;;;18.99;56.28;101590.03;5066700;28;20040;-62
2022/04/13 10:27:09;;;;;;;15.07;8.05;;;;;;;19.53;54.25;101586.13;5066598;28;20032;-63
2022/04/13 10:29:40;;;;;;;14.23;8.35;;;;;;;19.60;55.74;101592.75;5043708;28;20044;-62
2022/04/13 10:32:17;;;;;;;11.00;6.75;;;;;;;19.31;55.37;101595.31;5061160;28;20120;-63
2022/04/13 10:34:45;;;;;;;11.60;5.93;;;;;;;18.94;56.70;101594.97;5066336;28;20036;-62
2022/04/13 10:37:12;;;;;;;9.95;5.63;;;;;;;18.98;55.72;101594.59;5080366;28;20051;-62
2022/04/13 10:39:39;;;;;;;9.27;6.35;;;;;;;18.75;56.81;101604.66;5077083;28;20084;-62
2022/04/13 10:42:07;;;;;;;9.18;6.00;;;;;;;18.52;58.17;101605.72;5100954;28;20676;-63
2022/04/13 10:44:34;;;;;;;8.60;6.03;;;;;;;18.73;57.32;101598.53;5101549;28;20473;-62
2022/04/13 10:47:12;;;;;;;11.32;6.60;;;;;;;18.82;56.97;101604.97;5082793;28;20049;-62
2022/04/13 10:49:56;;;;;;;13.27;7.00;;;;;;;19.72;55.79;101601.59;5100959;28;20070;-62
2022/04/13 10:52:39;;;;;;;10.48;5.95;;;;;;;19.86;54.73;101606.63;5091556;28;20036;-62
2022/04/13 10:55:08;;;;;;;14.40;6.38;;;;;;;19.84;54.08;101606.78;5069772;28;20036;-63
2022/04/13 10:57:40;;;;;;;8.93;6.07;;;;;;;19.81;54.59;101611.59;5047604;28;20396;-62
2022/04/13 11:00:06;;;;;;;;;;;;;;;19.91;54.63;101613.34;5055926;28;20054;-62
2022/04/13 11:02:42;;;;;;;9.63;6.10;;;;;;;19.88;53.29;101604.63;5068477;28;20018;-62
2022/04/13 11:05:08;;;;;;;10.40;5.95;;;;;;;19.36;54.87;101611.97;5063312;28;20033;-62
2022/04/13 11:07:36;;;;;;;11.70;6.38;;;;;;;19.59;55.53;101605.44;5077461;28;20042;-62
2022/04/13 11:10:02;;;;;;;11.68;6.72;;;;;;;19.20;55.56;101611.63;5052528;28;20413;-63
2022/04/13 11:12:29;;;;;;;12.13;5.45;;;;;;;18.90;56.15;101605.19;5062025;28;20052;-62
2022/04/13 11:14:58;;;;;;;9.77;5.57;;;;;;;18.77;56.71;101618.03;5060535;28;20056;-62